Island Park, ID (83429)

11:31 AM MDT on June 22, 2017 (GMT -0600)
Island Park Ranger Station | | Change Station
Active Advisory: Flood Warning

Elev 6306 ft 44.42 °N, 111.37 °W | Updated 17 seconds ago

Clear
Clear
63.3 °F
Feels Like 63.3 °F
N
4.5
Wind Variable Wind from SSE
Gusts 7.4 mph

Today
High -- | Low -- °F
--% Chance of Precip.
Yesterday
High -- | Low -- °F
Precip. -- in
Pressure 30.15 in
Visibility 10.0 miles
Clouds Clear
Dew Point 31 °F
Humidity 29%
Rainfall 0.00 in
Snow Depth Not available.
5:41 AM 9:13 PM
Waning Crescent, 3% visible
METAR KWYS 221715Z AUTO 25006G12KT 10SM CLR 16/M04 A3015 RMK AO2
Pressure 30.15 in
Visibility 10.0 miles
Clouds Clear
Dew Point 31 °F
Humidity 29%
Rainfall 0.00 in
Snow Depth Not available.
5:41 AM 9:13 PM
Waning Crescent, 3% visible
METAR KWYS 221715Z AUTO 25006G12KT 10SM CLR 16/M04 A3015 RMK AO2

Get Your Daily Forecast Email!

Thanks for signing up!

Be on the lookout for a verification email in your inbox.

You'll start receiving severe weather alerts in your inbox..

×

10-Day Weather Forecast

Almanac

Astronomy

Jun. 22, 2017 Rise Set
Actual Time
Civil Twilight
Nautical Twilight
Astronomical Twilight
Moon
Length of Visible Light
Length of Day
Tomorrow will be .
, % of the Moon is Illuminated

Today's Extremes

State Highs State Lows

Community

WunderPhotos

Category 6

Welcome to Category 6. This is the collective home for Weather Underground's featured writeups by Dr. Jeff Masters (right), Bob Henson (left), Chris Burt, and other regular contributors.

Nearby

Air Quality

  Air Quality AQ Index Pollutant
Not available.

Snow Depth

Station Depth Elevation

Earthquake Activity

City Distance Mag. Time & Date
Minimum magnitude displayed is 2.5.

Coastal Water Temperatures

Place Temperature

Stations

Nearby Weather Stations

Station Location Temp. Windchill Dew Point Humidity Wind Precip. Elev Updated Type
                   

Watches & Warnings

Flood Warning
Issued: 10:39 AM MDT Jun. 22, 2017 – National Weather Service

The Flood Warning continues for
the Teton river near Driggs.
* At 10:30 am Thursday the stage was 4.4 feet.
* Flood stage is 4.2 feet.
* Minor flooding is occurring and minor flooding is forecast. A
crest of 4.6 feet is forecast to occur Thursday evening. The river
will begin to fall on Friday. The river is forecast to fall below
flood stage on Saturday.
* Impact... at 5.0 feet... livestock and pasture land will be flooded.
Cache bridge boat ramp is under water.



                       Fld observed forecast 6 am
location stg stg day time Fri Sat sun

Teton river
Teton river near dri 4.2 4.4 Thu 10 am 4.6 4.3 3.9




Lat... Lon 4389 11136 4393 11115 4362 11107 4360 11121